Terminal Aerodrome Forecast
Issued by NWS

Home | Current Version | Previous Version | Graphics & Text | Print | Product List | Glossary On
Versions: 1 2 3 4 5 6 7 8 9 10 11 12 13 14
000
FTUS45 KGGW 171019 AAA
TAFOLF
TAF AMD
KOLF 171019Z 1710/1806 VRB03KT P6SM BKN060
     FM171200 VRB03KT 1/4SM FG VV002
     FM171500 14006KT 3SM BR FEW070
     FM171600 17006KT P6SM FEW100=

USA.gov is the U.S. government's official web portal to all federal, state and local government web resources and services.